createdAt,value
2023-03-21T00:00:57.185Z,80.70
2023-03-21T00:02:18.569Z,80.64
2023-03-21T00:03:52.830Z,80.78
2023-03-21T00:05:22.156Z,80.84
2023-03-21T00:06:55.758Z,80.74
2023-03-21T00:08:19.418Z,80.77
2023-03-21T00:10:15.413Z,80.96
2023-03-21T00:11:41.368Z,81.00
2023-03-21T00:13:15.017Z,81.14
2023-03-21T00:14:38.767Z,80.90
2023-03-21T00:16:04.988Z,81.04
2023-03-21T00:17:44.779Z,80.96
2023-03-21T00:19:09.675Z,80.93
2023-03-21T00:20:31.435Z,81.00
2023-03-21T00:22:07.981Z,81.13
2023-03-21T00:23:42.060Z,81.14
2023-03-21T00:25:03.597Z,80.81
2023-03-21T00:26:25.369Z,81.07
2023-03-21T00:28:01.450Z,81.02
2023-03-21T00:29:40.454Z,81.09
2023-03-21T00:31:12.518Z,81.11
2023-03-21T00:32:39.746Z,81.31
2023-03-21T00:34:04.414Z,81.19
2023-03-21T00:35:58.015Z,81.51
2023-03-21T00:37:16.679Z,81.32
2023-03-21T00:38:43.328Z,81.12
2023-03-21T00:40:23.093Z,81.11
2023-03-21T00:42:01.731Z,81.18
2023-03-21T00:43:23.570Z,81.20
2023-03-21T00:45:09.957Z,81.33
2023-03-21T00:47:06.541Z,81.14
2023-03-21T00:48:31.738Z,81.08
2023-03-21T00:50:01.550Z,81.14
2023-03-21T00:51:26.751Z,81.23
2023-03-21T00:52:51.377Z,80.86
2023-03-21T00:54:20.465Z,80.94
2023-03-21T00:55:44.894Z,81.12
2023-03-21T00:57:09.350Z,81.08
2023-03-21T00:58:45.038Z,81.15
2023-03-21T01:00:30.162Z,81.10
2023-03-21T01:02:19.094Z,81.08
2023-03-21T01:04:12.737Z,81.21
2023-03-21T01:05:53.232Z,81.13
2023-03-21T01:07:17.490Z,80.89
2023-03-21T01:08:51.824Z,81.19
2023-03-21T01:10:17.382Z,81.01
2023-03-21T01:11:42.228Z,81.04
2023-03-21T01:13:22.733Z,80.96
2023-03-21T01:15:03.394Z,81.29
2023-03-21T01:16:25.427Z,81.03
2023-03-21T01:17:59.638Z,81.19
2023-03-21T01:19:31.006Z,81.01
2023-03-21T01:20:59.667Z,81.11
2023-03-21T01:22:21.249Z,81.02
2023-03-21T01:24:11.598Z,81.18
2023-03-21T01:25:38.093Z,81.43
2023-03-21T01:27:00.538Z,81.45
2023-03-21T01:28:32.587Z,81.58
2023-03-21T01:30:06.222Z,81.57
2023-03-21T01:31:32.597Z,81.59
2023-03-21T01:32:56.911Z,81.66
2023-03-21T01:34:18.304Z,81.64
2023-03-21T01:35:49.168Z,81.47
2023-03-21T01:37:29.619Z,81.66
2023-03-21T01:38:55.970Z,81.43
2023-03-21T01:40:20.174Z,81.38
2023-03-21T01:41:45.081Z,81.29
2023-03-21T01:43:13.248Z,81.34
2023-03-21T01:44:54.531Z,81.44
2023-03-21T01:46:21.589Z,81.46
2023-03-21T01:48:01.114Z,81.39
2023-03-21T01:49:36.035Z,81.62
2023-03-21T01:52:01.038Z,81.75
2023-03-21T01:53:37.777Z,81.53
2023-03-21T01:55:14.317Z,81.47
2023-03-21T01:56:58.931Z,81.72
2023-03-21T01:58:23.029Z,81.47
2023-03-21T02:00:32.133Z,81.37
2023-03-21T02:02:01.635Z,81.36
2023-03-21T02:03:58.515Z,81.42
2023-03-21T02:05:58.483Z,80.95
2023-03-21T02:07:47.035Z,81.29
2023-03-21T02:09:23.108Z,81.22
2023-03-21T02:10:52.596Z,81.19
2023-03-21T02:12:48.980Z,81.12
2023-03-21T02:14:29.268Z,81.21
2023-03-21T02:16:05.652Z,81.04
2023-03-21T02:17:31.503Z,81.14
2023-03-21T02:19:13.980Z,80.85
2023-03-21T02:20:59.641Z,81.19
2023-03-21T02:22:41.050Z,81.05
2023-03-21T02:24:16.789Z,81.22
2023-03-21T02:26:02.420Z,80.95
2023-03-21T02:27:47.938Z,80.65
2023-03-21T02:29:11.974Z,80.65
2023-03-21T02:30:51.968Z,80.89
2023-03-21T02:32:25.385Z,80.94
2023-03-21T02:34:08.545Z,80.94
2023-03-21T02:35:44.123Z,80.77
2023-03-21T02:37:13.106Z,80.96
2023-03-21T02:38:41.977Z,80.71
2023-03-21T02:40:27.236Z,81.11
2023-03-21T02:42:02.040Z,80.94
2023-03-21T02:43:52.770Z,81.02
2023-03-21T02:45:25.822Z,80.86
2023-03-21T02:47:06.504Z,80.91
2023-03-21T02:48:44.368Z,80.96
2023-03-21T02:50:30.825Z,80.79
2023-03-21T02:52:14.447Z,80.96
2023-03-21T02:54:28.131Z,81.03
2023-03-21T02:55:57.587Z,80.90
2023-03-21T02:57:43.948Z,80.50
2023-03-21T02:59:25.196Z,80.98
2023-03-21T03:01:01.360Z,80.82
2023-03-21T03:03:08.235Z,80.75
2023-03-21T03:04:43.051Z,80.53
2023-03-21T03:06:07.845Z,80.44
2023-03-21T03:07:53.912Z,80.57
2023-03-21T03:09:16.612Z,80.62
2023-03-21T03:11:02.394Z,80.68
2023-03-21T03:12:44.787Z,80.82
2023-03-21T03:16:23.678Z,80.69
2023-03-21T03:17:47.838Z,80.87
2023-03-21T03:19:21.427Z,81.00
2023-03-21T03:20:55.276Z,80.90
2023-03-21T03:22:28.421Z,80.59
2023-03-21T03:24:13.816Z,80.82
2023-03-21T03:25:42.582Z,80.82
2023-03-21T03:27:19.776Z,80.74
2023-03-21T03:29:05.406Z,80.87
2023-03-21T03:30:40.953Z,81.07
2023-03-21T03:32:07.047Z,80.98
2023-03-21T03:33:42.032Z,81.15
2023-03-21T03:35:13.559Z,81.04
2023-03-21T03:36:50.630Z,80.94
2023-03-21T03:38:24.376Z,81.01
2023-03-21T03:40:07.952Z,80.84
2023-03-21T03:42:06.019Z,81.05
2023-03-21T03:43:38.208Z,80.99
2023-03-21T03:45:20.347Z,80.82
2023-03-21T03:47:05.978Z,80.72
2023-03-21T03:48:51.211Z,80.53
2023-03-21T03:50:36.619Z,80.76
2023-03-21T03:52:17.980Z,80.45
2023-03-21T03:53:44.575Z,80.55
2023-03-21T03:55:29.633Z,80.60
2023-03-21T03:57:17.728Z,80.47
2023-03-21T03:58:51.181Z,80.47
2023-03-21T04:00:27.957Z,80.60
2023-03-21T04:02:09.446Z,80.62
2023-03-21T04:04:06.967Z,80.47
2023-03-21T04:05:48.912Z,80.53
2023-03-21T04:07:22.405Z,80.59
2023-03-21T04:09:23.350Z,80.80
2023-03-21T04:11:13.495Z,80.80
2023-03-21T04:13:03.888Z,80.91
2023-03-21T04:14:48.921Z,80.62
2023-03-21T04:16:20.176Z,80.70
2023-03-21T04:18:07.806Z,80.58
2023-03-21T04:20:05.472Z,80.79
2023-03-21T04:21:45.424Z,80.59
2023-03-21T04:23:33.366Z,80.57
2023-03-21T04:25:30.777Z,80.72
2023-03-21T04:27:17.916Z,80.75
2023-03-21T04:29:05.667Z,80.77
2023-03-21T04:31:25.451Z,80.72
2023-03-21T04:33:08.993Z,80.66
2023-03-21T04:34:45.528Z,80.77
2023-03-21T04:36:31.174Z,80.82
2023-03-21T04:38:16.046Z,80.86
2023-03-21T04:39:54.470Z,81.14
2023-03-21T04:41:27.438Z,80.78
2023-03-21T04:43:16.698Z,80.95
2023-03-21T04:44:51.737Z,81.01
2023-03-21T04:46:46.089Z,80.78
2023-03-21T04:48:31.213Z,80.92
2023-03-21T04:50:08.200Z,80.85
2023-03-21T04:51:59.830Z,80.72
2023-03-21T04:53:44.856Z,81.28
2023-03-21T04:55:10.074Z,81.33
2023-03-21T04:56:48.822Z,81.27
2023-03-21T04:58:20.177Z,81.30
2023-03-21T04:59:56.321Z,81.17
2023-03-21T05:01:32.647Z,81.27
2023-03-21T05:03:01.408Z,81.18
2023-03-21T05:04:46.755Z,81.23
2023-03-21T05:06:22.438Z,81.54
2023-03-21T05:08:06.507Z,81.41
2023-03-21T05:09:55.579Z,81.37
2023-03-21T05:11:48.567Z,81.61
2023-03-21T05:13:24.266Z,81.68
2023-03-21T05:14:46.447Z,81.52
2023-03-21T05:16:31.220Z,81.45
2023-03-21T05:18:11.433Z,81.51
2023-03-21T05:19:48.480Z,81.80
2023-03-21T05:21:29.246Z,81.52
2023-03-21T05:23:14.992Z,81.85
2023-03-21T05:24:39.201Z,81.74
2023-03-21T05:26:25.187Z,81.82
2023-03-21T05:28:05.862Z,81.78
2023-03-21T05:29:39.576Z,81.83
2023-03-21T05:31:20.832Z,81.78
2023-03-21T05:32:59.110Z,81.40
2023-03-21T05:34:36.271Z,81.43
2023-03-21T05:36:11.869Z,81.49
2023-03-21T05:37:50.969Z,81.50
2023-03-21T05:39:24.269Z,81.46
2023-03-21T05:41:17.224Z,81.36
2023-03-21T05:42:52.260Z,81.56
2023-03-21T05:44:16.705Z,81.82
2023-03-21T05:45:55.576Z,81.47
2023-03-21T05:47:36.309Z,81.59
2023-03-21T05:49:06.332Z,81.49
2023-03-21T05:50:51.550Z,81.48
2023-03-21T05:52:28.522Z,81.15
2023-03-21T05:54:05.250Z,81.02
2023-03-21T05:55:50.338Z,81.40
2023-03-21T05:57:50.350Z,81.11
2023-03-21T05:59:40.705Z,81.22
2023-03-21T06:01:25.466Z,81.20
2023-03-21T06:03:23.919Z,81.33
2023-03-21T06:05:16.441Z,80.89
2023-03-21T06:07:06.022Z,81.16
2023-03-21T06:08:59.469Z,81.12
2023-03-21T06:10:44.509Z,81.05
2023-03-21T06:12:09.699Z,80.90
2023-03-21T06:14:00.813Z,80.82
2023-03-21T06:15:54.166Z,80.98
2023-03-21T06:17:37.057Z,80.98
2023-03-21T06:19:13.988Z,80.98
2023-03-21T06:21:10.604Z,80.78
2023-03-21T06:22:57.763Z,81.04
2023-03-21T06:24:35.541Z,80.65
2023-03-21T06:26:22.764Z,80.80
2023-03-21T06:27:59.469Z,80.67
2023-03-21T06:29:33.369Z,80.77
2023-03-21T06:31:09.208Z,80.64
2023-03-21T06:32:51.002Z,80.67
2023-03-21T06:34:38.392Z,80.84
2023-03-21T06:36:15.087Z,81.12
2023-03-21T06:37:55.889Z,80.94
2023-03-21T06:39:46.052Z,80.66
2023-03-21T06:41:31.516Z,80.77
2023-03-21T06:43:12.824Z,80.78
2023-03-21T06:45:06.513Z,80.61
2023-03-21T06:46:51.496Z,79.77
2023-03-21T06:48:45.617Z,79.64
2023-03-21T06:50:21.469Z,79.63
2023-03-21T06:51:48.481Z,79.90
2023-03-21T06:53:27.741Z,80.24
2023-03-21T06:55:31.234Z,79.98
2023-03-21T06:57:17.253Z,79.74
2023-03-21T06:58:49.674Z,79.86
2023-03-21T07:01:16.133Z,80.07
2023-03-21T07:02:58.355Z,80.40
2023-03-21T07:04:34.805Z,80.20
2023-03-21T07:06:19.879Z,79.91
2023-03-21T07:07:49.841Z,79.86
2023-03-21T07:09:30.073Z,80.13
2023-03-21T07:11:09.594Z,80.11
2023-03-21T07:13:05.003Z,80.08
2023-03-21T07:14:34.534Z,79.90
2023-03-21T07:16:08.278Z,79.89
2023-03-21T07:17:42.036Z,79.93
2023-03-21T07:19:17.716Z,79.93
2023-03-21T07:21:10.940Z,79.74
2023-03-21T07:22:56.083Z,79.80
2023-03-21T07:24:24.971Z,80.09
2023-03-21T07:26:01.029Z,80.00
2023-03-21T07:27:39.109Z,79.70
2023-03-21T07:29:25.471Z,79.97
2023-03-21T07:31:01.308Z,80.12
2023-03-21T07:32:46.288Z,79.56
2023-03-21T07:34:19.845Z,79.91
2023-03-21T07:35:56.681Z,79.90
2023-03-21T07:37:27.383Z,79.98
2023-03-21T07:39:12.958Z,79.83
2023-03-21T07:40:54.938Z,79.50
2023-03-21T07:44:03.696Z,79.56
2023-03-21T07:45:50.861Z,79.57
2023-03-21T07:47:33.053Z,79.86
2023-03-21T07:48:55.305Z,79.66
2023-03-21T07:50:30.965Z,79.58
2023-03-21T07:52:16.174Z,79.55
2023-03-21T07:53:57.972Z,79.39
2023-03-21T07:55:42.810Z,78.56
2023-03-21T07:57:16.300Z,78.40
2023-03-21T07:58:38.167Z,78.85
2023-03-21T08:00:22.962Z,78.54
2023-03-21T08:01:56.952Z,77.80
2023-03-21T08:03:37.298Z,77.54
2023-03-21T08:05:11.560Z,77.32
2023-03-21T08:06:56.720Z,77.75
2023-03-21T08:08:39.382Z,77.72
2023-03-21T08:10:12.959Z,77.37
2023-03-21T08:11:44.367Z,77.32
2023-03-21T08:13:29.089Z,77.44
2023-03-21T08:15:00.989Z,77.61
2023-03-21T08:16:41.407Z,77.75
2023-03-21T08:18:17.259Z,78.20
2023-03-21T08:19:51.002Z,77.95
2023-03-21T08:21:44.507Z,77.81
2023-03-21T08:23:29.260Z,77.90
2023-03-21T08:25:15.813Z,77.91
2023-03-21T08:26:52.603Z,78.32
2023-03-21T08:28:25.645Z,78.46
2023-03-21T08:29:59.446Z,78.12
2023-03-21T08:31:44.434Z,78.47
2023-03-21T08:33:19.730Z,78.76
2023-03-21T08:35:05.113Z,78.49
2023-03-21T08:36:40.318Z,78.34
2023-03-21T08:38:16.074Z,79.05
2023-03-21T08:39:40.326Z,78.59
2023-03-21T08:41:15.969Z,78.26
2023-03-21T08:42:58.123Z,78.09
2023-03-21T08:44:51.015Z,77.78
2023-03-21T08:46:39.266Z,77.88
2023-03-21T08:48:24.782Z,77.76
2023-03-21T08:50:11.834Z,77.96
2023-03-21T08:51:37.606Z,77.91
2023-03-21T08:53:13.836Z,77.66
2023-03-21T08:54:49.516Z,77.35
2023-03-21T08:56:22.667Z,77.45
2023-03-21T08:58:16.762Z,77.22
2023-03-21T08:59:40.884Z,77.71
2023-03-21T09:01:14.360Z,77.64
2023-03-21T09:03:01.359Z,77.59
2023-03-21T09:04:34.836Z,76.97
2023-03-21T09:06:08.851Z,76.94
2023-03-21T09:07:46.500Z,77.12
2023-03-21T09:09:20.047Z,77.02
2023-03-21T09:11:14.087Z,77.01
2023-03-21T09:12:47.618Z,76.85
2023-03-21T09:14:29.177Z,76.91
2023-03-21T09:16:05.640Z,77.20
2023-03-21T09:17:59.380Z,77.13
2023-03-21T09:19:49.861Z,76.96
2023-03-21T09:21:31.930Z,76.87
2023-03-21T09:23:17.273Z,77.31
2023-03-21T09:25:05.509Z,77.25
2023-03-21T09:26:41.301Z,76.65
2023-03-21T09:28:16.450Z,77.22
2023-03-21T09:30:06.036Z,77.01
2023-03-21T09:31:51.731Z,77.70
2023-03-21T09:33:32.841Z,77.92
2023-03-21T09:34:56.105Z,77.92
2023-03-21T09:36:49.309Z,77.87
2023-03-21T09:38:34.857Z,77.97
2023-03-21T09:40:20.192Z,77.94
2023-03-21T09:42:15.189Z,78.20
2023-03-21T09:43:50.672Z,78.51
2023-03-21T09:45:40.659Z,77.89
2023-03-21T09:47:21.388Z,77.58
2023-03-21T09:48:57.416Z,76.96
2023-03-21T09:50:51.314Z,76.39
2023-03-21T09:52:28.173Z,76.15
2023-03-21T09:54:14.046Z,76.53
2023-03-21T09:56:07.863Z,76.17
2023-03-21T09:57:41.840Z,76.32
2023-03-21T09:59:15.817Z,76.59
2023-03-21T10:00:45.965Z,76.29
2023-03-21T10:02:22.144Z,76.37
2023-03-21T10:03:55.955Z,76.28
2023-03-21T10:05:36.782Z,76.62
2023-03-21T10:07:22.566Z,76.31
2023-03-21T10:09:16.541Z,76.25
2023-03-21T10:10:52.148Z,76.98
2023-03-21T10:12:32.986Z,76.69
2023-03-21T10:14:06.842Z,76.26
2023-03-21T10:15:47.844Z,76.11
2023-03-21T10:17:28.172Z,75.77
2023-03-21T10:19:13.348Z,75.50
2023-03-21T10:20:49.333Z,75.54
2023-03-21T10:22:22.549Z,75.75
2023-03-21T10:24:05.987Z,75.62
2023-03-21T10:25:29.736Z,75.50
2023-03-21T10:26:54.003Z,75.37
2023-03-21T10:28:52.717Z,75.62
2023-03-21T10:30:37.826Z,75.30
2023-03-21T10:32:18.732Z,75.18
2023-03-21T10:34:00.434Z,75.24
2023-03-21T10:35:36.956Z,75.43
2023-03-21T10:37:19.287Z,74.95
2023-03-21T10:39:04.688Z,74.66
2023-03-21T10:40:49.345Z,74.53
2023-03-21T10:42:25.001Z,73.91
2023-03-21T10:43:58.554Z,73.49
2023-03-21T10:45:31.843Z,73.69
2023-03-21T10:47:17.018Z,73.78
2023-03-21T10:48:52.572Z,73.43
2023-03-21T10:50:25.460Z,73.42
2023-03-21T10:51:52.765Z,73.53
2023-03-21T10:53:46.964Z,73.58
2023-03-21T10:55:20.326Z,73.21
2023-03-21T10:57:16.709Z,73.32
2023-03-21T10:58:58.543Z,73.32
2023-03-21T11:00:34.240Z,73.45
2023-03-21T11:02:19.693Z,73.56
2023-03-21T11:04:13.421Z,73.70
2023-03-21T11:05:45.170Z,73.24
2023-03-21T11:07:30.894Z,73.48
2023-03-21T11:09:16.072Z,73.14
2023-03-21T11:10:52.529Z,72.82
2023-03-21T11:12:46.945Z,72.51
2023-03-21T11:14:22.626Z,72.12
2023-03-21T11:16:13.341Z,72.37
2023-03-21T11:18:07.947Z,71.88
2023-03-21T11:19:48.669Z,71.62
2023-03-21T11:21:29.675Z,71.51
2023-03-21T11:23:15.174Z,72.05
2023-03-21T11:25:00.435Z,71.41
2023-03-21T11:26:45.238Z,71.34
2023-03-21T11:28:11.598Z,70.88
2023-03-21T11:30:03.228Z,71.15
2023-03-21T11:31:48.233Z,71.16
2023-03-21T11:33:24.025Z,70.81
2023-03-21T11:35:07.421Z,70.45
2023-03-21T11:36:40.873Z,70.27
2023-03-21T11:38:17.308Z,70.39
2023-03-21T11:40:04.452Z,70.98
2023-03-21T11:41:38.167Z,71.23
2023-03-21T11:43:11.891Z,71.28
2023-03-21T11:44:41.245Z,70.87
2023-03-21T11:46:14.950Z,71.79
2023-03-21T11:47:39.451Z,69.81
2023-03-21T11:49:13.858Z,68.59
2023-03-21T11:50:59.596Z,68.21
2023-03-21T11:52:32.432Z,68.15
2023-03-21T11:54:08.752Z,68.38
2023-03-21T11:55:54.209Z,67.67
2023-03-21T11:57:18.739Z,67.86
2023-03-21T11:58:40.357Z,68.46
2023-03-21T12:00:14.159Z,68.15
2023-03-21T12:01:59.518Z,68.56
2023-03-21T12:03:47.280Z,68.35
2023-03-21T12:05:24.924Z,68.43
2023-03-21T12:06:58.500Z,68.51
2023-03-21T12:08:34.786Z,68.70
2023-03-21T12:10:04.954Z,68.90
2023-03-21T12:11:58.976Z,68.75
2023-03-21T12:13:32.153Z,68.98
2023-03-21T12:15:01.388Z,69.24
2023-03-21T12:16:34.723Z,69.75
2023-03-21T12:18:19.702Z,69.82
2023-03-21T12:19:53.044Z,69.47
2023-03-21T12:21:26.477Z,69.08
2023-03-21T12:22:48.380Z,68.65
2023-03-21T12:24:22.247Z,68.60
2023-03-21T12:25:56.202Z,68.39
2023-03-21T12:27:21.936Z,69.03
2023-03-21T12:28:55.643Z,68.83
2023-03-21T12:30:30.834Z,68.52
2023-03-21T12:32:08.037Z,67.73
2023-03-21T12:33:48.951Z,66.99
2023-03-21T12:35:33.109Z,66.70
2023-03-21T12:37:04.339Z,66.51
2023-03-21T12:38:28.129Z,66.33
2023-03-21T12:40:02.548Z,65.65
2023-03-21T12:41:35.592Z,66.35
2023-03-21T12:43:06.709Z,65.97
2023-03-21T12:44:30.334Z,66.02
2023-03-21T12:45:57.262Z,65.89
2023-03-21T12:47:19.109Z,65.95
2023-03-21T12:48:59.191Z,65.69
2023-03-21T12:50:36.777Z,65.37
2023-03-21T12:52:13.189Z,65.51
2023-03-21T12:53:44.541Z,64.65
2023-03-21T12:55:20.728Z,64.57
2023-03-21T12:57:11.100Z,64.14
2023-03-21T12:58:52.376Z,64.44
2023-03-21T13:00:37.295Z,64.15
2023-03-21T13:02:10.711Z,64.11
2023-03-21T13:03:39.922Z,63.23
2023-03-21T13:05:16.874Z,63.37
2023-03-21T13:07:08.995Z,63.98
2023-03-21T13:08:44.766Z,63.81
2023-03-21T13:10:20.780Z,62.92
2023-03-21T13:11:54.373Z,62.59
2023-03-21T13:13:29.919Z,62.90
2023-03-21T13:15:21.705Z,62.24
2023-03-21T13:17:09.520Z,60.35
2023-03-21T13:18:38.427Z,60.56
2023-03-21T13:20:14.975Z,60.06
2023-03-21T13:21:39.282Z,60.55
2023-03-21T13:23:25.262Z,59.91
2023-03-21T13:24:59.891Z,59.13
2023-03-21T13:26:33.647Z,59.87
2023-03-21T13:28:07.172Z,60.01
2023-03-21T13:30:00.235Z,59.63
2023-03-21T13:31:21.973Z,59.55
2023-03-21T13:32:46.441Z,59.35
2023-03-21T13:34:21.903Z,58.55
2023-03-21T13:36:08.201Z,58.38
2023-03-21T13:37:30.680Z,58.55
2023-03-21T13:39:06.971Z,58.47
2023-03-21T13:40:40.609Z,58.66
2023-03-21T13:42:02.910Z,58.87
2023-03-21T13:43:27.312Z,58.08
2023-03-21T13:45:12.954Z,57.88
2023-03-21T13:46:54.223Z,58.15
2023-03-21T13:48:21.042Z,59.17
2023-03-21T13:49:52.775Z,58.44
2023-03-21T13:51:21.702Z,57.79
2023-03-21T13:52:55.846Z,56.94
2023-03-21T13:54:31.205Z,56.80
2023-03-21T13:55:53.200Z,56.26
2023-03-21T13:57:24.878Z,56.75
2023-03-21T13:58:46.977Z,56.90
2023-03-21T14:00:20.515Z,56.52
2023-03-21T14:01:45.210Z,56.76
2023-03-21T14:03:19.538Z,56.57
2023-03-21T14:05:04.923Z,55.79
2023-03-21T14:06:39.032Z,54.12
2023-03-21T14:08:12.708Z,53.26
2023-03-21T14:09:38.983Z,51.59
2023-03-21T14:11:14.998Z,51.28
2023-03-21T14:12:48.710Z,50.89
2023-03-21T14:14:12.766Z,50.72
2023-03-21T14:15:55.168Z,50.24
2023-03-21T14:17:19.860Z,50.12
2023-03-21T14:18:56.252Z,50.73
2023-03-21T14:20:20.012Z,51.22
2023-03-21T14:21:53.550Z,51.54
2023-03-21T14:23:17.405Z,51.86
2023-03-21T14:24:50.937Z,51.31
2023-03-21T14:26:15.329Z,50.85
2023-03-21T14:27:37.790Z,51.32
2023-03-21T14:29:22.907Z,51.18
2023-03-21T14:30:49.858Z,51.62
2023-03-21T14:32:14.406Z,51.77
2023-03-21T14:33:43.689Z,52.22
2023-03-21T14:35:08.323Z,52.43
2023-03-21T14:36:48.625Z,53.15
2023-03-21T14:38:29.449Z,53.55
2023-03-21T14:39:53.747Z,53.34
2023-03-21T14:41:17.529Z,53.64
2023-03-21T14:43:05.997Z,53.38
2023-03-21T14:44:28.096Z,54.01
2023-03-21T14:46:01.701Z,54.63
2023-03-21T14:47:37.323Z,55.37
2023-03-21T14:49:22.828Z,55.60
2023-03-21T14:51:18.041Z,56.38
2023-03-21T14:52:44.032Z,57.00
2023-03-21T14:54:17.489Z,57.28
2023-03-21T14:55:49.124Z,57.80
2023-03-21T14:57:20.254Z,57.58
2023-03-21T14:58:46.975Z,57.46
2023-03-21T15:00:16.459Z,57.57
2023-03-21T15:01:48.135Z,57.97
2023-03-21T15:03:23.484Z,57.64
2023-03-21T15:05:04.625Z,57.72
2023-03-21T15:06:28.189Z,57.97
2023-03-21T15:07:53.598Z,58.27
2023-03-21T15:09:17.666Z,57.87
2023-03-21T15:10:39.130Z,57.85
2023-03-21T15:12:10.568Z,58.68
2023-03-21T15:13:55.714Z,58.57
2023-03-21T15:15:31.144Z,58.90
2023-03-21T15:17:07.441Z,58.80
2023-03-21T15:18:33.297Z,59.55
2023-03-21T15:20:10.143Z,59.53
2023-03-21T15:21:33.966Z,59.49
2023-03-21T15:23:19.383Z,59.49
2023-03-21T15:24:56.063Z,58.61
2023-03-21T15:26:49.972Z,57.94
2023-03-21T15:28:23.018Z,57.67
2023-03-21T15:29:49.869Z,57.65
2023-03-21T15:31:14.193Z,57.68
2023-03-21T15:33:09.001Z,57.34
2023-03-21T15:35:03.972Z,57.32
2023-03-21T15:36:35.501Z,57.67
2023-03-21T15:38:20.914Z,57.76
2023-03-21T15:39:54.471Z,57.92
2023-03-21T15:41:16.488Z,58.22
2023-03-21T15:43:04.020Z,58.87
2023-03-21T15:44:37.589Z,58.77
2023-03-21T15:45:59.927Z,59.50
2023-03-21T15:47:28.787Z,59.92
2023-03-21T15:49:10.043Z,60.07
2023-03-21T15:50:41.345Z,60.60
2023-03-21T15:52:26.910Z,60.99
2023-03-21T15:53:49.120Z,61.14
2023-03-21T15:55:11.098Z,61.42
2023-03-21T15:56:34.726Z,61.80
2023-03-21T15:57:59.919Z,61.86
2023-03-21T15:59:31.546Z,62.22
2023-03-21T16:00:55.450Z,62.21
2023-03-21T16:02:24.984Z,62.04
2023-03-21T16:03:47.917Z,62.53
2023-03-21T16:05:32.867Z,62.55
2023-03-21T16:07:06.708Z,62.81
2023-03-21T16:08:28.643Z,63.16
2023-03-21T16:10:02.238Z,63.10
2023-03-21T16:11:37.630Z,63.34
2023-03-21T16:13:22.766Z,63.42
2023-03-21T16:14:56.560Z,63.56
2023-03-21T16:16:22.735Z,64.07
2023-03-21T16:17:54.456Z,64.01
2023-03-21T16:19:29.968Z,64.11
2023-03-21T16:20:59.339Z,64.19
2023-03-21T16:22:28.413Z,64.46
2023-03-21T16:24:13.890Z,64.72
2023-03-21T16:25:59.673Z,64.79
2023-03-21T16:27:30.720Z,64.99
2023-03-21T16:29:07.054Z,65.13
2023-03-21T16:30:38.498Z,65.13
2023-03-21T16:32:23.926Z,65.53
2023-03-21T16:34:11.582Z,65.68
2023-03-21T16:35:57.031Z,65.73
2023-03-21T16:37:41.851Z,66.17
2023-03-21T16:39:15.516Z,66.25
2023-03-21T16:41:00.809Z,66.39
2023-03-21T16:42:24.521Z,66.45
2023-03-21T16:43:46.290Z,66.58
2023-03-21T16:45:31.232Z,66.66
2023-03-21T16:47:16.476Z,66.96
2023-03-21T16:48:52.661Z,67.01
2023-03-21T16:50:24.283Z,67.38
2023-03-21T16:51:58.086Z,67.56
2023-03-21T16:53:31.370Z,67.87
2023-03-21T16:55:03.219Z,67.93
2023-03-21T16:56:32.733Z,68.29
2023-03-21T16:57:57.570Z,68.55
2023-03-21T16:59:30.862Z,68.72
2023-03-21T17:01:07.168Z,68.63
2023-03-21T17:02:31.370Z,68.63
2023-03-21T17:04:03.155Z,69.01
2023-03-21T17:05:38.971Z,69.28
2023-03-21T17:07:20.151Z,69.50
2023-03-21T17:08:44.402Z,69.38
2023-03-21T17:10:17.901Z,69.53
2023-03-21T17:11:55.295Z,69.54
2023-03-21T17:13:24.838Z,69.56
2023-03-21T17:14:58.987Z,69.56
2023-03-21T17:16:30.079Z,69.84
2023-03-21T17:18:12.063Z,70.15
2023-03-21T17:19:41.390Z,70.09
2023-03-21T17:21:10.814Z,70.27
2023-03-21T17:22:44.501Z,70.37
2023-03-21T17:24:17.585Z,70.89
2023-03-21T17:25:46.808Z,70.91
2023-03-21T17:27:29.212Z,71.04
2023-03-21T17:29:03.149Z,71.02
2023-03-21T17:30:39.869Z,71.37
2023-03-21T17:32:14.026Z,71.37
2023-03-21T17:33:50.128Z,71.69
2023-03-21T17:35:23.746Z,71.82
2023-03-21T17:36:49.505Z,71.90
2023-03-21T17:38:25.115Z,72.21
2023-03-21T17:39:47.835Z,72.02
2023-03-21T17:41:32.898Z,72.42
2023-03-21T17:42:55.334Z,72.47
2023-03-21T17:44:28.425Z,73.01
2023-03-21T17:46:02.920Z,72.71
2023-03-21T17:47:32.857Z,72.86
2023-03-21T17:49:18.065Z,72.95
2023-03-21T17:50:49.553Z,72.99
2023-03-21T17:52:21.375Z,73.07
2023-03-21T17:54:11.375Z,73.07
2023-03-21T17:55:48.017Z,73.33
2023-03-21T17:57:10.399Z,73.21
2023-03-21T17:58:46.701Z,73.37
2023-03-21T18:00:12.466Z,73.43
2023-03-21T18:01:35.314Z,73.61
2023-03-21T18:03:08.288Z,73.79
2023-03-21T18:04:41.578Z,73.89
2023-03-21T18:06:15.601Z,74.14
2023-03-21T18:09:43.879Z,74.29
2023-03-21T18:11:24.753Z,73.82
2023-03-21T18:12:53.042Z,74.20
2023-03-21T18:14:30.632Z,74.08
2023-03-21T18:16:10.464Z,74.30
2023-03-21T18:17:46.703Z,74.32
2023-03-21T18:19:16.033Z,74.36
2023-03-21T18:21:11.000Z,74.59
2023-03-21T18:22:44.359Z,74.37
2023-03-21T18:24:08.748Z,73.81
2023-03-21T18:25:50.528Z,73.84
2023-03-21T18:27:14.420Z,73.50
2023-03-21T18:28:43.667Z,73.47
2023-03-21T18:30:44.357Z,73.39
2023-03-21T18:32:02.538Z,73.41
2023-03-21T18:33:40.459Z,73.67
2023-03-21T18:35:14.614Z,73.60
2023-03-21T18:36:39.364Z,73.77
2023-03-21T18:38:14.581Z,74.01
2023-03-21T18:39:48.462Z,73.89
2023-03-21T18:41:24.818Z,73.71
2023-03-21T18:43:45.897Z,73.99
2023-03-21T18:44:47.020Z,74.00
2023-03-21T18:46:21.457Z,74.10
2023-03-21T18:47:44.212Z,73.67
2023-03-21T18:51:00.935Z,73.78
2023-03-21T18:52:26.311Z,74.48
2023-03-21T18:53:48.705Z,74.40
2023-03-21T18:55:32.751Z,74.41
2023-03-21T18:59:25.684Z,74.40
2023-03-21T19:00:59.696Z,74.55
2023-03-21T19:02:29.109Z,74.35
2023-03-21T19:04:17.835Z,74.42
2023-03-21T19:06:05.149Z,74.50
2023-03-21T19:07:29.927Z,74.54
2023-03-21T19:08:54.686Z,74.54
2023-03-21T19:10:21.839Z,74.59
2023-03-21T19:12:15.651Z,74.64
2023-03-21T19:13:49.765Z,74.65
2023-03-21T19:15:25.775Z,74.59
2023-03-21T19:17:56.418Z,74.58
2023-03-21T19:18:56.505Z,74.57
2023-03-21T19:20:38.300Z,74.69
2023-03-21T19:22:08.597Z,74.81
2023-03-21T19:23:50.129Z,74.67
2023-03-21T19:25:15.486Z,74.75
2023-03-21T19:26:44.776Z,75.07
2023-03-21T19:28:09.737Z,74.86
2023-03-21T19:29:33.891Z,74.97
2023-03-21T19:31:10.003Z,75.12
2023-03-21T19:32:43.755Z,75.58
2023-03-21T19:34:07.981Z,75.42
2023-03-21T19:35:43.671Z,75.50
2023-03-21T19:37:08.044Z,75.44
2023-03-21T19:38:41.553Z,75.21
2023-03-21T19:40:08.687Z,75.51
2023-03-21T19:41:51.084Z,75.69
2023-03-21T19:43:32.864Z,76.04
2023-03-21T19:44:57.943Z,75.89
2023-03-21T19:46:31.225Z,75.77
2023-03-21T19:47:55.980Z,75.53
2023-03-21T19:49:21.969Z,75.56
2023-03-21T19:51:24.697Z,75.74
2023-03-21T19:52:47.243Z,75.85
2023-03-21T19:54:32.701Z,75.85
2023-03-21T19:56:22.417Z,75.88
2023-03-21T19:57:49.610Z,75.94
2023-03-21T19:59:21.036Z,75.71
2023-03-21T20:00:57.498Z,75.65
2023-03-21T20:02:36.144Z,75.51
2023-03-21T20:04:09.983Z,75.55
2023-03-21T20:05:31.668Z,75.76
2023-03-21T20:06:56.933Z,75.32
2023-03-21T20:08:42.835Z,75.62
2023-03-21T20:10:44.011Z,75.79
2023-03-21T20:12:17.681Z,75.80
2023-03-21T20:13:49.654Z,75.48
2023-03-21T20:15:29.452Z,75.37
2023-03-21T20:16:55.340Z,75.27
2023-03-21T20:18:19.538Z,75.66
2023-03-21T20:20:00.163Z,75.88
2023-03-21T20:21:25.951Z,76.11
2023-03-21T20:24:45.527Z,76.42
2023-03-21T20:26:08.007Z,76.53
2023-03-21T20:27:32.110Z,76.42
2023-03-21T20:29:59.927Z,76.50
2023-03-21T20:31:01.985Z,76.90
2023-03-21T20:32:23.366Z,76.68
2023-03-21T20:33:56.774Z,76.81
2023-03-21T20:35:39.883Z,76.86
2023-03-21T20:37:11.413Z,76.92
2023-03-21T20:38:45.804Z,77.00
2023-03-21T20:40:19.098Z,77.03
2023-03-21T20:41:59.788Z,77.14
2023-03-21T20:44:11.601Z,77.18
2023-03-21T20:45:07.994Z,77.31
2023-03-21T20:46:43.778Z,76.93
2023-03-21T20:48:17.297Z,76.59
2023-03-21T20:50:00.009Z,76.87
2023-03-21T20:52:29.560Z,76.85
2023-03-21T20:53:27.078Z,76.65
2023-03-21T20:55:00.565Z,76.82
2023-03-21T20:56:35.993Z,76.60
2023-03-21T20:58:30.246Z,76.71
2023-03-21T21:00:24.944Z,76.75
2023-03-21T21:01:49.540Z,76.72